Time;durP1;ratioP1;P1;durP2;ratioP2;P2;SDS_P1;SDS_P2;PMS_P1;PMS_P2;Temp;Humidity;BMP_temperature;BMP_pressure;BME280_temperature;BME280_humidity;BME280_pressure;Samples;Min_cycle;Max_cycle;Signal;HPM_P1;HPM_P2
2022/12/28 00:01:05;;;;;;;65.35;35.60;;;;;;;8.69;100.00;99755.44;5127368;27;20510;-94
2022/12/28 00:03:31;;;;;;;67.25;36.92;;;;;;;8.65;100.00;99743.06;5118719;28;20031;-94
2022/12/28 00:05:57;;;;;;;58.65;35.83;;;;;;;8.54;100.00;99726.31;5127448;27;20051;-95
2022/12/28 00:08:23;;;;;;;53.55;32.50;;;;;;;8.52;100.00;99728.09;5118188;28;20503;-94
2022/12/28 00:10:50;;;;;;;52.85;32.72;;;;;;;8.35;100.00;99723.72;5136634;27;20046;-95
2022/12/28 00:13:16;;;;;;;46.55;28.10;;;;;;;8.25;100.00;99721.09;5139089;27;20488;-92
2022/12/28 00:15:42;;;;;;;41.35;27.15;;;;;;;8.17;100.00;99729.91;5138816;27;20034;-94
2022/12/28 00:18:08;;;;;;;45.80;28.65;;;;;;;8.02;100.00;99709.66;5128516;27;20130;-93
2022/12/28 00:20:34;;;;;;;55.25;32.17;;;;;;;8.02;100.00;99719.34;5136732;27;20019;-94
2022/12/28 00:23:03;;;;;;;50.67;31.45;;;;;;;8.13;100.00;99729.91;5129749;27;20051;-94
2022/12/28 00:25:29;;;;;;;52.42;31.67;;;;;;;8.11;100.00;99718.44;5130386;27;20040;-95
2022/12/28 00:27:56;;;;;;;51.85;31.85;;;;;;;8.27;100.00;99736.09;5132957;27;20481;-95
2022/12/28 00:30:22;;;;;;;52.90;33.05;;;;;;;8.23;100.00;99719.31;5117662;28;20481;-94
2022/12/28 00:32:49;;;;;;;56.10;33.30;;;;;;;8.25;100.00;99700.75;5117851;28;20036;-95
2022/12/28 00:35:15;;;;;;;53.30;33.78;;;;;;;8.33;100.00;99712.22;5117644;28;20622;-95
2022/12/28 00:37:41;;;;;;;52.70;33.58;;;;;;;8.50;100.00;99729.84;5125591;27;20074;-94
2022/12/28 00:40:08;;;;;;;54.92;32.22;;;;;;;8.40;100.00;99711.34;5132526;27;20036;-94
2022/12/28 00:42:34;;;;;;;47.78;31.48;;;;;;;8.48;100.00;99710.44;5138210;27;20043;-94
2022/12/28 00:45:02;;;;;;;48.97;30.75;;;;;;;8.60;100.00;99727.19;5120790;27;20066;-93
2022/12/28 00:47:28;;;;;;;50.47;31.05;;;;;;;8.69;100.00;99736.88;5134430;27;20046;-94
2022/12/28 00:49:53;;;;;;;46.45;29.40;;;;;;;8.44;100.00;99706.94;5121684;27;20040;-92
2022/12/28 00:52:19;;;;;;;49.20;28.75;;;;;;;8.52;100.00;99731.66;5117547;28;20397;-95
2022/12/28 00:54:45;;;;;;;49.17;30.63;;;;;;;8.39;100.00;99721.91;5117102;28;20043;-94
2022/12/28 00:57:11;;;;;;;49.13;28.73;;;;;;;8.28;100.00;99706.03;5128878;27;20400;-94
2022/12/28 00:59:37;;;;;;;43.58;27.73;;;;;;;8.28;100.00;99721.94;5127848;27;20033;-94
2022/12/28 01:02:04;;;;;;;48.38;28.88;;;;;;;8.34;100.00;99743.13;5129605;27;20099;-95
2022/12/28 01:04:30;;;;;;;47.03;27.85;;;;;;;8.19;100.00;99733.44;5128442;27;20134;-96
2022/12/28 01:06:56;;;;;;;46.25;27.60;;;;;;;7.97;100.00;99706.09;5116172;28;20075;-95
2022/12/28 01:09:22;;;;;;;45.20;28.50;;;;;;;8.04;100.00;99728.16;5117249;28;20045;-94
2022/12/28 01:11:48;;;;;;;50.15;29.42;;;;;;;7.95;100.00;99726.41;5127901;27;20065;-93
2022/12/28 01:14:14;;;;;;;47.67;29.05;;;;;;;7.80;100.00;99692.88;5121209;27;20074;-93
2022/12/28 01:16:40;;;;;;;49.95;29.17;;;;;;;8.05;100.00;99729.06;5134442;27;20046;-96
2022/12/28 01:19:07;;;;;;;47.20;28.42;;;;;;;8.17;100.00;99740.50;5117169;28;20047;-95
2022/12/28 01:21:34;;;;;;;48.30;28.17;;;;;;;8.08;100.00;99722.00;5117825;28;20439;-94
2022/12/28 01:24:02;;;;;;;46.17;28.70;;;;;;;8.26;100.00;99747.56;5136596;27;20484;-95
2022/12/28 01:26:29;;;;;;;47.67;28.60;;;;;;;8.23;100.00;99736.97;5127784;27;20046;-95
2022/12/28 01:28:55;;;;;;;48.15;30.13;;;;;;;8.26;100.00;99750.19;5137249;27;20047;-95
2022/12/28 01:31:21;;;;;;;48.60;28.33;;;;;;;8.03;100.00;99715.81;5136742;27;20066;-94
2022/12/28 01:33:47;;;;;;;47.97;28.73;;;;;;;8.14;100.00;99729.94;5137763;27;20043;-95
2022/12/28 01:36:17;;;;;;;44.83;26.80;;;;;;;8.31;100.00;99743.16;5136960;27;20098;-95
2022/12/28 01:38:44;;;;;;;34.22;23.00;;;;;;;8.37;100.00;99743.13;5137151;27;20027;-94
2022/12/28 01:41:13;;;;;;;31.00;20.27;;;;;;;8.27;100.00;99767.00;5132965;27;20039;-95
2022/12/28 01:43:41;;;;;;;38.88;22.27;;;;;;;8.23;100.00;99755.53;5123825;27;20392;-94
2022/12/28 01:46:09;;;;;;;36.27;20.87;;;;;;;7.83;100.00;99702.63;5131582;27;20099;-94
2022/12/28 01:48:44;;;;;;;31.38;20.17;;;;;;;8.13;100.00;99753.75;5123550;27;20307;-94
2022/12/28 01:51:11;;;;;;;38.38;22.40;;;;;;;8.00;100.00;99752.91;5132566;27;20492;-94
2022/12/28 01:53:38;;;;;;;38.50;22.88;;;;;;;8.05;100.00;99750.28;5133803;27;20484;-94
2022/12/28 01:56:05;;;;;;;37.42;21.98;;;;;;;8.19;100.00;99759.06;5135107;27;20492;-94
2022/12/28 01:58:33;;;;;;;33.85;21.20;;;;;;;7.91;100.00;99719.34;5133357;28;20403;-95
2022/12/28 02:00:59;;;;;;;36.88;22.35;;;;;;;7.98;100.00;99737.03;5135086;28;20046;-95
2022/12/28 02:03:26;;;;;;;36.67;22.23;;;;;;;7.92;100.00;99718.50;5128736;27;20392;-95
2022/12/28 02:05:58;;;;;;;34.58;20.67;;;;;;;8.06;100.00;99744.06;5124543;28;20067;-94
2022/12/28 02:08:28;;;;;;;33.17;20.83;;;;;;;8.06;100.00;99744.94;5134951;28;20047;-95
2022/12/28 02:10:56;;;;;;;33.60;20.42;;;;;;;8.00;100.00;99734.34;5123885;28;20078;-95
2022/12/28 02:13:23;;;;;;;37.03;22.23;;;;;;;8.09;100.00;99752.00;5129540;27;20048;-95
2022/12/28 02:15:50;;;;;;;35.65;21.13;;;;;;;8.08;100.00;99750.25;5119203;28;20094;-95
2022/12/28 02:18:18;;;;;;;34.33;19.98;;;;;;;8.16;100.00;99759.06;5123966;27;20039;-95
2022/12/28 02:21:10;;;;;;;36.55;21.75;;;;;;;7.97;100.00;99745.84;5131046;27;20044;-95
2022/12/28 02:23:47;;;;;;;35.90;22.15;;;;;;;8.05;100.00;99761.75;5134093;27;20163;-96
2022/12/28 02:26:42;;;;;;;37.03;22.25;;;;;;;8.13;100.00;99759.97;5126619;27;20378;-93
2022/12/28 02:29:21;;;;;;;36.95;23.05;;;;;;;8.20;100.00;99756.41;5133198;27;20063;-94
2022/12/28 02:31:57;;;;;;;39.25;21.75;;;;;;;8.30;100.00;99746.66;5132768;27;20035;-95
2022/12/28 02:34:26;;;;;;;39.38;23.10;;;;;;;8.23;100.00;99721.06;5138820;27;20035;-95
2022/12/28 02:36:59;;;;;;;43.88;25.73;;;;;;;8.18;100.00;99715.78;5133396;27;20044;-94
2022/12/28 02:39:30;;;;;;;40.33;23.55;;;;;;;8.39;100.00;99745.75;5130765;27;20035;-93
2022/12/28 02:41:58;;;;;;;37.22;22.70;;;;;;;8.33;100.00;99724.59;5129275;27;20100;-95
2022/12/28 02:50:43;;;;;;;34.33;21.33;;;;;;;8.46;100.00;99736.97;5094313;27;20890;-94
2022/12/28 02:53:28;;;;;;;39.13;21.75;;;;;;;8.44;100.00;99730.78;5093371;28;20068;-93
2022/12/28 02:56:09;;;;;;;38.38;21.77;;;;;;;8.25;100.00;99724.59;5093114;28;20104;-95
2022/12/28 02:59:01;;;;;;;38.17;22.77;;;;;;;8.15;100.00;99723.72;5092992;28;20064;-94
2022/12/28 03:01:49;;;;;;;33.78;21.27;;;;;;;8.07;100.00;99743.16;5082490;28;20044;-93
2022/12/28 03:04:20;;;;;;;32.17;19.80;;;;;;;7.86;100.00;99718.50;5092932;28;20036;-94
2022/12/28 03:10:06;;;;;;;26.60;15.75;;;;;;;7.60;100.00;99729.09;5093598;27;20886;-92
2022/12/28 03:12:37;;;;;;;31.38;18.33;;;;;;;7.38;100.00;99723.78;5093005;28;20040;-94
2022/12/28 03:15:07;;;;;;;28.40;15.82;;;;;;;7.34;100.00;99731.72;5092356;28;20067;-92
2022/12/28 03:32:53;;;;;;;22.75;13.80;;;;;;;6.76;100.00;99700.72;5134685;27;20124;-93
2022/12/28 03:35:22;;;;;;;25.33;15.40;;;;;;;6.74;100.00;99715.69;5133614;27;20457;-93
2022/12/28 03:37:55;;;;;;;25.75;14.13;;;;;;;6.76;100.00;99714.81;5133498;27;20043;-95
2022/12/28 03:40:29;;;;;;;23.40;12.55;;;;;;;6.75;100.00;99722.75;5127390;28;20481;-94
2022/12/28 03:46:08;;;;;;;19.63;11.20;;;;;;;6.61;100.00;99713.88;5134077;27;20131;-93
2022/12/28 03:48:36;;;;;;;18.13;11.15;;;;;;;6.50;100.00;99697.97;5116351;28;20484;-93
2022/12/28 03:51:03;;;;;;;15.48;10.43;;;;;;;6.51;100.00;99710.31;5117180;28;20039;-93
2022/12/28 03:53:37;;;;;;;21.60;11.75;;;;;;;6.44;100.00;99700.59;5116999;28;20088;-94
2022/12/28 03:56:09;;;;;;;21.55;12.02;;;;;;;6.43;100.00;99704.13;5116926;28;20398;-94
2022/12/28 03:58:34;;;;;;;22.23;11.98;;;;;;;6.43;100.00;99707.63;5109800;28;20051;-94
2022/12/28 04:01:00;;;;;;;20.90;11.63;;;;;;;6.37;100.00;99705.84;5116751;28;20036;-94
2022/12/28 04:03:28;;;;;;;21.40;12.52;;;;;;;6.43;100.00;99727.91;5151397;27;20042;-93
2022/12/28 04:05:54;;;;;;;20.05;11.50;;;;;;;6.43;100.00;99730.53;5116782;28;20035;-95
2022/12/28 04:08:20;;;;;;;22.95;12.40;;;;;;;6.22;100.00;99696.97;5116890;28;20476;-95
2022/12/28 04:10:46;;;;;;;19.52;12.18;;;;;;;6.22;100.00;99697.84;5116940;28;20069;-94
2022/12/28 04:13:12;;;;;;;22.27;13.45;;;;;;;6.34;100.00;99716.41;5116711;28;20043;-94
2022/12/28 04:15:37;;;;;;;27.10;15.27;;;;;;;6.25;100.00;99695.22;5116789;28;20062;-95
2022/12/28 04:18:04;;;;;;;29.55;16.55;;;;;;;6.41;100.00;99727.88;5116585;27;20043;-94
2022/12/28 04:20:31;;;;;;;32.22;17.77;;;;;;;6.41;100.00;99721.72;5116489;27;20027;-94
2022/12/28 04:22:57;;;;;;;31.70;16.88;;;;;;;6.44;100.00;99720.00;5097620;28;20420;-95
2022/12/28 04:25:23;;;;;;;30.63;18.20;;;;;;;6.56;100.00;99738.50;5114800;28;20069;-94
2022/12/28 04:27:48;;;;;;;32.38;18.50;;;;;;;6.63;100.00;99738.56;5115522;28;20065;-95
2022/12/28 04:30:14;;;;;;;27.90;16.50;;;;;;;6.55;100.00;99722.69;5116093;28;20045;-94
2022/12/28 04:32:40;;;;;;;29.63;16.98;;;;;;;6.45;100.00;99700.59;5116230;28;20126;-94
2022/12/28 04:35:07;;;;;;;27.60;16.35;;;;;;;6.55;100.00;99707.69;5116364;28;20035;-95
2022/12/28 04:37:37;;;;;;;32.35;17.83;;;;;;;6.81;100.00;99745.66;5116164;28;20492;-94
2022/12/28 04:40:03;;;;;;;28.15;17.67;;;;;;;6.83;100.00;99744.81;5116024;28;20485;-95
2022/12/28 04:42:29;;;;;;;31.88;17.83;;;;;;;6.92;100.00;99754.53;5116249;28;20484;-94
2022/12/28 04:44:55;;;;;;;31.88;18.48;;;;;;;6.75;100.00;99712.19;5112492;28;20040;-95
2022/12/28 04:47:20;;;;;;;33.33;19.05;;;;;;;6.94;100.00;99734.25;5112735;27;20530;-95
2022/12/28 04:49:46;;;;;;;35.75;18.05;;;;;;;6.95;100.00;99730.75;5113208;28;20154;-95
2022/12/28 04:52:12;;;;;;;29.23;16.65;;;;;;;6.90;100.00;99711.34;5112469;28;20043;-95
2022/12/28 04:54:40;;;;;;;31.13;18.33;;;;;;;7.04;100.00;99728.13;5112735;28;20492;-94
2022/12/28 04:57:05;;;;;;;32.35;18.65;;;;;;;7.18;100.00;99744.91;5100356;28;20047;-94
2022/12/28 04:59:31;;;;;;;31.63;18.60;;;;;;;7.09;100.00;99713.16;5099101;28;20074;-95
2022/12/28 05:01:57;;;;;;;61.20;30.85;;;;;;;7.11;100.00;99714.06;5097849;28;20135;-94
2022/12/28 05:04:23;;;;;;;46.35;25.95;;;;;;;7.16;100.00;99709.63;5098287;28;20097;-93
2022/12/28 05:06:49;;;;;;;42.85;26.00;;;;;;;7.11;100.00;99705.22;5098693;28;20047;-94
2022/12/28 05:09:15;;;;;;;48.97;26.17;;;;;;;7.11;100.00;99723.72;5098835;28;20044;-94
2022/12/28 05:11:42;;;;;;;51.97;27.45;;;;;;;7.14;100.00;99724.63;5098486;28;20036;-94
2022/12/28 05:14:08;;;;;;;45.72;26.40;;;;;;;7.11;100.00;99731.66;5098634;28;20047;-95
2022/12/28 05:16:34;;;;;;;45.70;25.65;;;;;;;7.01;100.00;99733.41;5098807;28;20047;-95
2022/12/28 05:19:00;;;;;;;36.45;21.13;;;;;;;7.08;100.00;99753.69;5098759;28;20042;-95
2022/12/28 05:21:27;;;;;;;27.35;16.48;;;;;;;6.89;100.00;99733.38;5098480;28;20101;-95
2022/12/28 05:23:53;;;;;;;35.15;16.02;;;;;;;6.87;100.00;99732.47;5098301;28;20072;-95
2022/12/28 05:26:21;;;;;;;27.30;16.42;;;;;;;6.71;100.00;99713.91;5098588;27;20041;-96
2022/12/28 05:28:49;;;;;;;26.60;15.98;;;;;;;6.75;100.00;99723.63;5098243;27;20043;-95
2022/12/28 05:31:17;;;;;;;26.70;15.40;;;;;;;6.76;100.00;99720.09;5098559;28;20078;-95
2022/12/28 05:33:43;;;;;;;26.07;15.33;;;;;;;6.66;100.00;99712.13;5098275;28;20040;-95
2022/12/28 05:36:11;;;;;;;31.08;16.02;;;;;;;6.73;100.00;99725.38;5098162;28;20032;-95
2022/12/28 05:38:37;;;;;;;28.10;16.52;;;;;;;6.76;100.00;99749.16;5098544;28;20054;-96
2022/12/28 05:41:05;;;;;;;25.90;15.15;;;;;;;6.50;100.00;99722.63;5097197;28;20118;-95
2022/12/28 05:43:30;;;;;;;30.75;16.70;;;;;;;6.51;100.00;99742.91;5097733;27;20051;-94
2022/12/28 05:46:01;;;;;;;32.08;17.85;;;;;;;6.49;100.00;99743.78;5097735;28;20051;-95
2022/12/28 05:48:30;;;;;;;32.55;17.80;;;;;;;6.43;100.00;99751.66;5097990;28;20076;-95
2022/12/28 05:50:58;;;;;;;32.08;18.65;;;;;;;6.44;100.00;99762.25;5098497;28;20044;-95
2022/12/28 05:53:24;;;;;;;37.28;21.02;;;;;;;6.42;100.00;99756.09;5098277;28;20465;-96
2022/12/28 05:55:50;;;;;;;31.20;18.60;;;;;;;6.27;100.00;99740.16;5097845;28;20063;-93
2022/12/28 05:58:16;;;;;;;37.03;20.02;;;;;;;6.22;100.00;99739.22;5097796;28;20074;-95
2022/12/28 06:00:41;;;;;;;33.42;19.90;;;;;;;6.28;100.00;99770.94;5098174;28;20096;-94
2022/12/28 06:03:09;;;;;;;31.77;18.50;;;;;;;6.03;100.00;99733.84;5098403;28;20103;-95
2022/12/28 06:05:35;;;;;;;29.75;17.65;;;;;;;6.14;100.00;99768.22;5097756;28;20048;-95
2022/12/28 06:08:00;;;;;;;31.80;17.80;;;;;;;6.14;100.00;99770.88;5096865;27;20530;-94
2022/12/28 06:10:26;;;;;;;28.90;18.00;;;;;;;5.95;100.00;99752.25;5097538;28;20532;-95
2022/12/28 06:12:52;;;;;;;32.60;18.25;;;;;;;5.95;100.00;99749.59;5097568;28;20035;-94
2022/12/28 06:15:18;;;;;;;32.53;18.10;;;;;;;6.01;100.00;99758.44;5097558;28;20032;-95
2022/12/28 06:17:44;;;;;;;29.00;16.88;;;;;;;5.84;100.00;99734.53;5097786;28;20054;-94
2022/12/28 06:20:11;;;;;;;32.03;18.00;;;;;;;5.97;100.00;99747.88;5096591;28;20075;-96
2022/12/28 06:22:37;;;;;;;32.80;18.00;;;;;;;5.88;100.00;99739.84;5098746;28;20501;-95
2022/12/28 06:25:04;;;;;;;32.92;18.75;;;;;;;5.93;100.00;99746.03;5099137;28;20036;-95
2022/12/28 06:27:29;;;;;;;32.22;18.33;;;;;;;5.98;100.00;99743.47;5100074;28;20493;-95
2022/12/28 06:29:55;;;;;;;31.40;17.50;;;;;;;6.03;100.00;99741.75;5099545;28;20074;-93
2022/12/28 06:32:24;;;;;;;38.42;20.00;;;;;;;6.16;100.00;99738.31;5100828;28;20599;-95
2022/12/28 06:34:50;;;;;;;30.80;16.85;;;;;;;6.31;100.00;99756.03;5102391;28;20074;-95
2022/12/28 06:37:18;;;;;;;32.08;18.40;;;;;;;6.24;100.00;99738.34;5098510;28;20047;-95
2022/12/28 06:39:44;;;;;;;31.58;17.98;;;;;;;6.30;100.00;99740.16;5100036;28;20044;-95
2022/12/28 06:42:10;;;;;;;30.08;17.77;;;;;;;6.36;100.00;99746.34;5100552;28;20480;-95
2022/12/28 06:44:35;;;;;;;32.30;18.70;;;;;;;6.50;100.00;99746.41;5101178;28;20059;-95
2022/12/28 06:47:01;;;;;;;32.05;20.10;;;;;;;6.54;100.00;99744.69;5100221;28;20493;-95
2022/12/28 06:49:27;;;;;;;38.22;23.23;;;;;;;6.54;100.00;99756.13;5097607;28;20047;-96
2022/12/28 06:51:53;;;;;;;36.85;22.17;;;;;;;6.63;100.00;99757.94;5097896;28;20035;-95
2022/12/28 06:54:20;;;;;;;38.83;22.83;;;;;;;6.58;100.00;99741.19;5098029;28;20047;-95
2022/12/28 06:56:46;;;;;;;41.35;24.15;;;;;;;6.71;100.00;99750.91;5097823;28;20093;-95
2022/12/28 06:59:12;;;;;;;38.95;23.80;;;;;;;6.61;100.00;99733.25;5095219;28;20044;-95
2022/12/28 07:01:43;;;;;;;44.08;25.98;;;;;;;6.65;100.00;99742.09;5097816;28;20105;-95
2022/12/28 07:04:09;;;;;;;37.88;24.90;;;;;;;6.63;100.00;99750.00;5098779;28;20048;-94
2022/12/28 07:06:37;;;;;;;42.40;26.92;;;;;;;6.56;100.00;99740.28;5097106;28;20048;-95
2022/12/28 07:09:06;;;;;;;39.30;24.48;;;;;;;6.72;100.00;99763.28;5097057;28;20032;-96
2022/12/28 07:11:34;;;;;;;37.25;23.60;;;;;;;6.68;100.00;99757.94;5097031;28;20039;-95
2022/12/28 07:14:00;;;;;;;36.90;24.23;;;;;;;6.66;100.00;99734.19;5098215;28;20079;-95
2022/12/28 07:16:28;;;;;;;39.17;26.38;;;;;;;6.67;100.00;99746.50;5096987;28;20040;-95
2022/12/28 07:18:54;;;;;;;40.63;25.98;;;;;;;6.68;100.00;99747.38;5096720;28;20051;-95
2022/12/28 07:21:22;;;;;;;42.17;27.55;;;;;;;6.65;100.00;99742.09;5096429;28;20040;-94
2022/12/28 07:23:50;;;;;;;50.90;31.80;;;;;;;6.43;100.00;99731.41;5096544;28;20509;-95
2022/12/28 07:26:19;;;;;;;45.70;28.13;;;;;;;6.60;100.00;99767.63;5096661;28;20072;-94
2022/12/28 07:28:48;;;;;;;43.88;26.23;;;;;;;6.53;100.00;99761.44;5096402;28;20040;-94
2022/12/28 07:31:15;;;;;;;;;;;;;;;6.51;100.00;99771.09;5097237;28;20508;-94
2022/12/28 07:33:42;;;;;;;41.28;25.83;;;;;;;6.38;100.00;99771.03;5096123;28;20022;-94
2022/12/28 07:36:10;;;;;;;45.92;26.45;;;;;;;6.32;100.00;99757.78;5096049;28;20145;-95
2022/12/28 07:38:36;;;;;;;45.43;27.80;;;;;;;6.17;100.00;99733.91;5096083;28;20044;-95
2022/12/28 07:41:03;;;;;;;38.88;25.77;;;;;;;6.22;100.00;99752.41;5095220;28;20046;-95
2022/12/28 07:43:29;;;;;;;43.03;28.17;;;;;;;6.31;100.00;99777.16;5094860;28;20047;-95
2022/12/28 07:46:01;;;;;;;42.55;27.80;;;;;;;6.14;100.00;99739.19;5096275;28;20561;-95
2022/12/28 07:48:28;;;;;;;41.97;26.73;;;;;;;6.15;100.00;99756.78;5096085;28;20068;-95
2022/12/28 07:50:54;;;;;;;46.03;26.45;;;;;;;6.29;100.00;99786.81;5096792;28;20047;-93
2022/12/28 07:53:20;;;;;;;51.85;26.83;;;;;;;6.32;100.00;99791.25;5096375;28;20044;-95
2022/12/28 07:55:54;;;;;;;45.97;26.25;;;;;;;6.32;100.00;99784.19;5096226;28;20139;-94
2022/12/28 07:58:19;;;;;;;65.75;28.38;;;;;;;6.36;100.00;99795.66;5096266;28;20098;-94
2022/12/28 08:00:45;;;;;;;79.60;27.88;;;;;;;6.15;100.00;99762.06;5096171;28;20468;-95
2022/12/28 08:03:13;;;;;;;46.00;28.30;;;;;;;6.11;100.00;99755.00;5098550;28;20051;-96
2022/12/28 08:05:39;;;;;;;45.58;28.10;;;;;;;6.10;100.00;99758.53;5096945;28;20055;-95
2022/12/28 08:08:05;;;;;;;48.53;28.42;;;;;;;6.31;100.00;99795.66;5098092;28;20394;-93
2022/12/28 08:10:32;;;;;;;48.42;29.45;;;;;;;6.12;100.00;99762.94;5098481;28;20044;-95
2022/12/28 08:13:00;;;;;;;52.70;33.10;;;;;;;6.20;100.00;99796.44;5099040;28;20593;-94
2022/12/28 08:15:25;;;;;;;48.35;32.33;;;;;;;6.15;100.00;99784.06;5098878;28;20044;-94
2022/12/28 08:17:52;;;;;;;54.58;32.45;;;;;;;6.25;100.00;99792.94;5097429;28;20103;-96
2022/12/28 08:20:20;;;;;;;46.17;29.85;;;;;;;6.28;100.00;99774.47;5099773;28;20048;-95
2022/12/28 08:22:46;;;;;;;51.13;31.25;;;;;;;6.47;100.00;99795.75;5099832;28;20044;-95
2022/12/28 08:25:12;;;;;;;56.00;32.50;;;;;;;6.39;100.00;99769.25;5098200;28;20044;-95
2022/12/28 08:27:38;;;;;;;56.85;33.35;;;;;;;6.59;100.00;99782.56;5099477;28;20049;-95
2022/12/28 08:30:06;;;;;;;54.50;34.17;;;;;;;6.69;100.00;99784.38;5098346;28;20046;-95
2022/12/28 08:32:32;;;;;;;49.72;34.30;;;;;;;6.86;100.00;99796.81;5100794;28;20028;-96
2022/12/28 08:34:58;;;;;;;58.45;37.15;;;;;;;7.05;100.00;99808.34;5100443;28;20040;-94
2022/12/28 08:37:25;;;;;;;44.38;30.42;;;;;;;6.98;100.00;99795.13;5100540;28;20039;-96
2022/12/28 08:39:51;;;;;;;50.20;30.00;;;;;;;7.01;100.00;99790.72;5099884;27;20044;-95
2022/12/28 08:42:17;;;;;;;48.85;30.10;;;;;;;7.08;100.00;99787.22;5101202;28;20070;-95
2022/12/28 08:44:43;;;;;;;48.67;30.58;;;;;;;7.04;100.00;99758.97;5099332;28;20131;-94
2022/12/28 08:47:08;;;;;;;50.72;31.02;;;;;;;7.24;100.00;99775.78;5099995;28;20116;-94
2022/12/28 08:49:34;;;;;;;49.00;33.28;;;;;;;7.19;100.00;99759.88;5099402;28;20055;-93
2022/12/28 08:52:00;;;;;;;51.17;31.90;;;;;;;7.31;100.00;99771.41;5100135;28;20347;-95
2022/12/28 08:54:27;;;;;;;51.17;29.95;;;;;;;7.57;100.00;99801.44;5099409;28;20047;-94
2022/12/28 08:56:54;;;;;;;48.80;29.17;;;;;;;7.58;100.00;99799.66;5099208;28;20039;-95
2022/12/28 08:59:20;;;;;;;49.92;28.98;;;;;;;7.41;100.00;99779.34;5100105;28;20131;-92
2022/12/28 09:01:46;;;;;;;49.83;29.58;;;;;;;7.50;100.00;99791.69;5099881;28;20142;-94
2022/12/28 09:04:27;;;;;;;56.55;28.63;;;;;;;7.60;100.00;99811.16;5109642;28;20058;-95
2022/12/28 09:06:53;;;;;;;55.97;30.23;;;;;;;7.44;100.00;99794.38;5098539;28;20048;-94
2022/12/28 09:09:19;;;;;;;54.75;30.05;;;;;;;7.49;100.00;99786.44;5099633;28;20044;-95
2022/12/28 09:11:47;;;;;;;61.55;30.20;;;;;;;7.67;100.00;99797.03;5100209;28;20044;-95
2022/12/28 09:14:14;;;;;;;50.20;28.85;;;;;;;7.66;100.00;99794.41;5101378;28;20044;-96
2022/12/28 09:16:40;;;;;;;46.22;30.10;;;;;;;7.72;100.00;99787.34;5099764;28;20042;-93
2022/12/28 09:19:10;;;;;;;49.92;30.23;;;;;;;7.79;100.00;99775.00;5099216;28;20404;-95
2022/12/28 09:21:37;;;;;;;47.58;30.25;;;;;;;7.91;100.00;99772.31;5099982;27;20036;-95
2022/12/28 09:24:04;;;;;;;56.53;34.72;;;;;;;8.22;100.00;99790.88;5100129;28;20043;-93
2022/12/28 09:26:34;;;;;;;50.08;32.08;;;;;;;8.46;100.00;99810.28;5099262;28;20043;-94
2022/12/28 09:29:04;;;;;;;49.80;33.13;;;;;;;8.37;100.00;99764.34;5099109;28;20047;-94
2022/12/28 09:31:32;;;;;;;51.63;32.45;;;;;;;8.55;100.00;99768.75;5099110;27;20036;-96
2022/12/28 09:34:00;;;;;;;55.53;34.15;;;;;;;8.73;100.00;99767.78;5098813;27;20044;-95
2022/12/28 09:36:28;;;;;;;51.65;33.13;;;;;;;8.87;100.00;99764.19;5098434;27;20058;-93
2022/12/28 09:38:54;;;;;;;63.23;35.67;;;;;;;9.09;100.00;99781.81;5098608;28;20063;-95
2022/12/28 09:41:25;;;;;;;61.40;33.42;;;;;;;9.14;100.00;99758.75;5097763;28;20028;-94
2022/12/28 09:43:55;;;;;;;54.22;33.53;;;;;;;9.39;100.00;99782.50;5100780;28;20053;-94
2022/12/28 09:46:23;;;;;;;56.17;31.92;;;;;;;9.33;100.00;99758.69;5101590;27;20040;-93
2022/12/28 09:48:54;;;;;;;47.88;31.10;;;;;;;9.52;100.00;99776.25;5101456;27;20040;-94
2022/12/28 09:51:30;;;;;;;50.78;31.70;;;;;;;9.63;100.00;99781.50;5100550;28;20074;-95
2022/12/28 09:53:56;;;;;;;52.45;33.40;;;;;;;9.72;100.00;99775.22;5099606;28;20134;-95
2022/12/28 09:56:27;;;;;;;50.08;30.88;;;;;;;9.84;100.00;99778.63;5100853;28;20536;-94
2022/12/28 09:58:54;;;;;;;49.22;29.23;;;;;;;9.76;100.00;99761.91;5101398;28;20088;-94
2022/12/28 10:01:23;;;;;;;44.85;28.45;;;;;;;10.00;100.00;99783.84;5101511;28;20122;-94
2022/12/28 10:03:49;;;;;;;46.92;27.77;;;;;;;9.80;100.00;99742.41;5101320;28;20046;-95
2022/12/28 10:06:20;;;;;;;45.95;26.85;;;;;;;9.93;100.00;99755.56;5101538;28;20073;-95
2022/12/28 10:08:49;;;;;;;46.67;29.13;;;;;;;10.03;100.00;99771.41;5101286;28;20120;-96
2022/12/28 10:11:19;;;;;;;46.08;28.55;;;;;;;10.01;100.00;99759.03;5103158;28;20043;-95
2022/12/28 10:13:45;;;;;;;48.85;28.95;;;;;;;10.08;100.00;99753.66;5101486;28;20035;-95
2022/12/28 10:16:17;;;;;;;44.72;28.08;;;;;;;10.05;100.00;99748.34;5101232;28;20055;-95
2022/12/28 10:18:45;;;;;;;42.92;29.02;;;;;;;10.18;100.00;99745.59;5085737;28;20032;-94
2022/12/28 10:21:11;;;;;;;46.90;29.38;;;;;;;10.41;100.00;99769.31;5100978;28;20109;-94
2022/12/28 10:23:39;;;;;;;52.00;31.13;;;;;;;10.22;100.00;99726.06;5100831;28;20088;-94
2022/12/28 10:26:05;;;;;;;49.78;28.98;;;;;;;10.27;100.00;99721.56;5101946;28;20048;-95
2022/12/28 10:28:41;;;;;;;39.45;26.88;;;;;;;10.43;100.00;99748.91;5101475;28;20046;-94
2022/12/28 10:31:10;;;;;;;43.65;27.00;;;;;;;10.41;100.00;99738.31;5100910;28;20040;-94
2022/12/28 10:33:38;;;;;;;37.65;22.85;;;;;;;10.54;100.00;99754.09;5101151;28;20043;-95
2022/12/28 10:36:11;;;;;;;32.10;21.52;;;;;;;10.45;100.00;99734.72;5100766;28;20028;-96
2022/12/28 10:38:37;;;;;;;38.15;23.17;;;;;;;10.54;100.00;99739.06;5101367;28;20023;-95
2022/12/28 10:41:05;;;;;;;31.90;17.15;;;;;;;10.55;100.00;99726.63;5100133;28;20039;-95
2022/12/28 10:43:34;;;;;;;42.17;24.25;;;;;;;10.69;100.00;99753.91;5099172;28;20039;-96
2022/12/28 10:46:01;;;;;;;37.90;19.90;;;;;;;10.74;99.28;99753.91;5099862;28;20039;-94
2022/12/28 10:48:31;;;;;;;53.65;34.17;;;;;;;10.45;100.00;99705.47;5100966;28;20067;-93
2022/12/28 10:51:00;;;;;;;36.13;21.23;;;;;;;10.65;100.00;99733.59;5100069;28;20050;-95
2022/12/28 10:53:30;;;;;;;39.92;24.83;;;;;;;10.82;99.53;99747.56;5099390;28;20042;-95
2022/12/28 10:56:02;;;;;;;36.00;23.05;;;;;;;10.85;100.00;99739.53;5100038;28;20049;-94
2022/12/28 10:58:28;;;;;;;37.70;23.02;;;;;;;10.76;100.00;99722.84;5101148;28;20046;-95
2022/12/28 11:00:55;;;;;;;40.03;24.10;;;;;;;10.67;98.77;99710.53;5100344;28;20035;-93
2022/12/28 11:03:24;;;;;;;40.30;24.80;;;;;;;10.67;99.83;99702.53;5099936;28;20471;-95
2022/12/28 11:06:07;;;;;;;37.05;23.70;;;;;;;10.66;99.74;99696.31;5099480;28;20039;-94
2022/12/28 11:08:35;;;;;;;34.28;20.10;;;;;;;10.71;98.94;99706.91;5079327;28;20056;-94
2022/12/28 11:11:01;;;;;;;29.80;19.63;;;;;;;10.76;99.47;99720.16;5079182;28;20093;-94
2022/12/28 11:13:27;;;;;;;33.80;21.13;;;;;;;10.64;100.00;99703.44;5092125;28;20629;-95
2022/12/28 11:15:53;;;;;;;33.97;19.48;;;;;;;10.78;100.00;99721.00;5100678;28;20039;-95
2022/12/28 11:18:20;;;;;;;33.60;20.52;;;;;;;10.60;100.00;99699.06;5101623;28;20047;-96
2022/12/28 11:20:47;;;;;;;37.67;21.45;;;;;;;10.53;100.00;99681.41;5102948;28;20071;-94
2022/12/28 11:23:17;;;;;;;33.92;21.27;;;;;;;10.59;100.00;99678.69;5104479;28;20040;-95
2022/12/28 11:25:45;;;;;;;30.50;19.83;;;;;;;10.60;100.00;99695.53;5101689;28;20047;-95
2022/12/28 11:28:15;;;;;;;32.50;21.00;;;;;;;10.66;100.00;99722.03;5102162;28;20050;-94
2022/12/28 11:30:41;;;;;;;34.65;21.75;;;;;;;10.58;100.00;99702.63;5104658;28;20047;-96
2022/12/28 11:33:24;;;;;;;34.47;22.08;;;;;;;10.55;100.00;99689.38;5102508;28;20043;-95
2022/12/28 11:35:53;;;;;;;36.17;22.90;;;;;;;10.52;100.00;99676.09;5104035;28;20040;-95
2022/12/28 11:38:40;;;;;;;34.40;22.30;;;;;;;10.76;100.00;99712.19;5100948;28;20040;-96
2022/12/28 11:41:09;;;;;;;37.30;22.77;;;;;;;10.70;100.00;99697.16;5100997;28;20047;-95
2022/12/28 11:43:39;;;;;;;;;;;;;;;10.85;100.00;99702.28;5100662;28;20044;-96
2022/12/28 11:46:26;;;;;;;35.88;22.00;;;;;;;10.90;100.00;99704.88;5134743;28;19972;-95
2022/12/28 11:48:58;;;;;;;39.35;21.88;;;;;;;10.82;100.00;99681.06;5100833;28;20075;-95